This is the latest recevied weather packets stored in our database for station/object EB2BAG-11. If no packets are shown the sender has not sent any weather packets the latest 10 day(s).
| Time | Temp. | Humidity | Pressure | Rain* | Wind** | Luminosity | Snow |
|---|---|---|---|---|---|---|---|
| 1778163382 | 21.11° C | 52% | 1010.9 hPa | - | - | - | - |
| 1778162182 | 22.78° C | 50% | 1010.9 hPa | - | - | - | - |
| 1778160982 | 21.67° C | 55% | 1011.1 hPa | - | - | - | - |
| 1778159782 | 20.56° C | 58% | 1011.5 hPa | - | - | - | - |
| 1778158582 | 21.11° C | 52% | 1011.6 hPa | - | - | - | - |
| 1778157382 | 22.22° C | 49% | 1011.5 hPa | - | - | - | - |
| 1778156182 | 23.89° C | 41% | 1011.6 hPa | - | - | - | - |
| 1778154982 | 22.78° C | 44% | 1012 hPa | - | - | - | - |
| 1778153782 | 22.22° C | 46% | 1012.2 hPa | - | - | - | - |
| 1778152582 | 22.78° C | 46% | 1012.4 hPa | - | - | - | - |
| 1778151382 | 21.11° C | 52% | 1012.7 hPa | - | - | - | - |
| 1778150182 | 21.67° C | 46% | 1012.9 hPa | - | - | - | - |
| 1778148981 | 21.11° C | 46% | 1013.3 hPa | - | - | - | - |
| 1778147781 | 21.11° C | 53% | 1013.5 hPa | - | - | - | - |
| 1778146581 | 19.44° C | 56% | 1013.8 hPa | - | - | - | - |
| 1778145381 | 18.33° C | 63% | 1014.1 hPa | - | - | - | - |
| 1778144181 | 17.22° C | 67% | 1014.1 hPa | - | - | - | - |
| 1778142981 | 17.22° C | 69% | 1014.2 hPa | - | - | - | - |
| 1778141781 | 15° C | 73% | 1014.6 hPa | - | - | - | - |
| 1778140580 | 13.89° C | 77% | 1014.8 hPa | - | - | - | - |
| 1778139380 | 13.89° C | 77% | 1014.8 hPa | - | - | - | - |
| 1778138180 | 12.78° C | 81% | 1014.8 hPa | - | - | - | - |
| 1778136980 | 11.11° C | 87% | 1015.1 hPa | - | - | - | - |
| 1778135780 | 10° C | 85% | 1015.3 hPa | - | - | - | - |
| 1778134580 | 8.89° C | 83% | 1015.4 hPa | - | - | - | - |
* Rain since midnight (hover to see other rain measurements)
** Current wind speed in m/s (hover to see current wind gust speed)